Airfield :
LOGIN :

Register | Disclaimer

   EN    FR    IT 

 










Legend :    VFR   Marginal VFR   IFR   Intensive IFR   Very Intensive IFR
Visi :
Ceiling :
>= 8 km
>= 3000ft
5 to 8 km
1000 to 3000 ft
1500m to 5 km
500 to 1000 ft
800 to 1500m
200 to 500 ft
< 800m
< 200 ft
Symbols :   Thunderstorms  Fog  Heavy snow  Heavy precipitations  Wind > 20 kt
SIGMETs :     Misc.  Thunderstorms  Icing  Turbulence  Mountain Waves  Volcanic Ashes






- Airport Elevation : 1516 ft
- IATA code : AGB


EDMA - Augsburg

CURRENT METAR :
  • 252120Z AUTO 24004KT 9999 FEW020/// BKN048/// OVC078/// 11/10 Q1012

EXPIRED METARs :
  • 252050Z AUTO 28003KT 9999 FEW023/// OVC078/// 11/10 Q1012
  • 252020Z AUTO 24004KT 9999 FEW031/// BKN079/// 11/10 Q1012
  • 251950Z AUTO 22002KT 9999 OVC081/// 11/10 Q1012
  • 251920Z AUTO 27003KT 9999 FEW048/// OVC082/// 12/11 Q1012
  • 251850Z 25003KT 9999 FEW048 12/11 Q1012

TAF TAF EDMA
Valid from the 25 at 18:00 until the 26 at 03:00 UTC


251700Z 2518/2603 VRB03KT CAVOK
TEMPO 2522/2603 3500 BR BKN006



MET'MAP, your aeronautical weather chart ! - Copyright ORBIFLY December 2007 - Disclaimer

ORBIFLY MET'MAP TEAM :

Programming & Development : Alexandra Zaïnal
Original concept : Baudouin d'Aumeries
Technical & hardware support : Manuel Goepfert
Assistance : Marc-Olivier Méhu




SOURCES & CREDITS :

   NOAA